<?xml version="1.0" encoding="UTF-8" standalone="no" ?>
<gpx xmlns="http://www.topografix.com/GPX/1/1" xmlns:xsi="http://www.w3.org/2001/XMLSchema-instance" xsi:schemaLocation="http://www.topografix.com/GPX/1/1 http://www.topografix.com/GPX/1/1/gpx.xsd" version="1.1" creator="VisuGPX - https://www.visugpx.com">
  <metadata>
    <name>2020-10-01-cezac-boisse</name>
    <desc><![CDATA[Randonnée de 9,6km pour 120m de dénivelé positif. De beaux paysages sur les terres du quercy blanc avec un passage au moulin de Boisse]]></desc>
  </metadata>
  <trk>
    <name><![CDATA[12103108- cezac-boisse raccourci]]></name>
    <trkseg>
      <trkpt lat="44.34007" lon="1.34286">
        <ele>199</ele>
        <time>2020-09-28T17:41:02Z</time>
      </trkpt>
      <trkpt lat="44.33884" lon="1.34328">
        <ele>197</ele>
        <time>2020-09-28T17:43:51Z</time>
      </trkpt>
      <trkpt lat="44.33645" lon="1.33977">
        <ele>193</ele>
        <time>2020-09-28T17:51:34Z</time>
      </trkpt>
      <trkpt lat="44.33344" lon="1.33496">
        <ele>187</ele>
        <time>2020-09-28T18:01:44Z</time>
      </trkpt>
      <trkpt lat="44.33221" lon="1.33573">
        <ele>190</ele>
        <time>2020-09-28T18:04:43Z</time>
      </trkpt>
      <trkpt lat="44.33043" lon="1.33522">
        <ele>208</ele>
        <time>2020-09-28T18:08:46Z</time>
      </trkpt>
      <trkpt lat="44.32883" lon="1.33213">
        <ele>199</ele>
        <time>2020-09-28T18:14:50Z</time>
      </trkpt>
      <trkpt lat="44.32748" lon="1.33281">
        <ele>204</ele>
        <time>2020-09-28T18:18:01Z</time>
      </trkpt>
      <trkpt lat="44.32638" lon="1.33041">
        <ele>219</ele>
        <time>2020-09-28T18:22:34Z</time>
      </trkpt>
      <trkpt lat="44.32306" lon="1.33075">
        <ele>258</ele>
        <time>2020-09-28T18:29:58Z</time>
      </trkpt>
      <trkpt lat="44.3219" lon="1.33333">
        <ele>256</ele>
        <time>2020-09-28T18:34:49Z</time>
      </trkpt>
      <trkpt lat="44.32073" lon="1.33367">
        <ele>261</ele>
        <time>2020-09-28T18:37:28Z</time>
      </trkpt>
      <trkpt lat="44.31999" lon="1.33522">
        <ele>266</ele>
        <time>2020-09-28T18:40:26Z</time>
      </trkpt>
      <trkpt lat="44.31956" lon="1.33719">
        <ele>265</ele>
        <time>2020-09-28T18:43:43Z</time>
      </trkpt>
      <trkpt lat="44.31821" lon="1.33951">
        <ele>269</ele>
        <time>2020-09-28T18:48:28Z</time>
      </trkpt>
      <trkpt lat="44.3187" lon="1.34131">
        <ele>262</ele>
        <time>2020-09-28T18:51:32Z</time>
      </trkpt>
      <trkpt lat="44.31698" lon="1.3432">
        <ele>258</ele>
        <time>2020-09-28T18:56:24Z</time>
      </trkpt>
      <trkpt lat="44.3168" lon="1.34423">
        <ele>261</ele>
        <time>2020-09-28T18:58:05Z</time>
      </trkpt>
      <trkpt lat="44.31661" lon="1.34509">
        <ele>265</ele>
        <time>2020-09-28T18:59:31Z</time>
      </trkpt>
      <trkpt lat="44.31545" lon="1.3462">
        <ele>271</ele>
        <time>2020-09-28T19:02:39Z</time>
      </trkpt>
      <trkpt lat="44.31532" lon="1.34818">
        <ele>267</ele>
        <time>2020-09-28T19:05:49Z</time>
      </trkpt>
      <trkpt lat="44.31545" lon="1.35032">
        <ele>266</ele>
        <time>2020-09-28T19:09:14Z</time>
      </trkpt>
      <trkpt lat="44.31526" lon="1.3541">
        <ele>271</ele>
        <time>2020-09-28T19:15:16Z</time>
      </trkpt>
      <trkpt lat="44.31618" lon="1.3541">
        <ele>272</ele>
        <time>2020-09-28T19:17:18Z</time>
      </trkpt>
      <trkpt lat="44.31766" lon="1.35238">
        <ele>271</ele>
        <time>2020-09-28T19:21:35Z</time>
      </trkpt>
      <trkpt lat="44.32139" lon="1.35187">
        <ele>256</ele>
        <time>2020-09-28T19:29:55Z</time>
      </trkpt>
      <trkpt lat="44.32613" lon="1.34946">
        <ele>239</ele>
        <time>2020-09-28T19:41:08Z</time>
      </trkpt>
      <trkpt lat="44.32583" lon="1.34818">
        <ele>237</ele>
        <time>2020-09-28T19:43:17Z</time>
      </trkpt>
      <trkpt lat="44.32742" lon="1.34818">
        <ele>221</ele>
        <time>2020-09-28T19:46:49Z</time>
      </trkpt>
      <trkpt lat="44.32804" lon="1.34843">
        <ele>216</ele>
        <time>2020-09-28T19:48:15Z</time>
      </trkpt>
      <trkpt lat="44.32804" lon="1.34964">
        <ele>216</ele>
        <time>2020-09-28T19:50:11Z</time>
      </trkpt>
      <trkpt lat="44.32816" lon="1.35015">
        <ele>219</ele>
        <time>2020-09-28T19:51:02Z</time>
      </trkpt>
      <trkpt lat="44.33006" lon="1.34964">
        <ele>210</ele>
        <time>2020-09-28T19:55:20Z</time>
      </trkpt>
      <trkpt lat="44.33061" lon="1.35024">
        <ele>209</ele>
        <time>2020-09-28T19:56:53Z</time>
      </trkpt>
      <trkpt lat="44.33104" lon="1.35144">
        <ele>210</ele>
        <time>2020-09-28T19:59:01Z</time>
      </trkpt>
      <trkpt lat="44.33154" lon="1.35221">
        <ele>210</ele>
        <time>2020-09-28T20:00:41Z</time>
      </trkpt>
      <trkpt lat="44.33239" lon="1.35204">
        <ele>207</ele>
        <time>2020-09-28T20:02:35Z</time>
      </trkpt>
      <trkpt lat="44.33313" lon="1.35444">
        <ele>215</ele>
        <time>2020-09-28T20:06:45Z</time>
      </trkpt>
      <trkpt lat="44.33589" lon="1.35522">
        <ele>254</ele>
        <time>2020-09-28T20:13:01Z</time>
      </trkpt>
      <trkpt lat="44.33657" lon="1.35607">
        <ele>264</ele>
        <time>2020-09-28T20:15:02Z</time>
      </trkpt>
      <trkpt lat="44.33589" lon="1.35238">
        <ele>265</ele>
        <time>2020-09-28T20:21:06Z</time>
      </trkpt>
      <trkpt lat="44.33491" lon="1.35067">
        <ele>261</ele>
        <time>2020-09-28T20:24:35Z</time>
      </trkpt>
      <trkpt lat="44.33516" lon="1.34861">
        <ele>258</ele>
        <time>2020-09-28T20:27:55Z</time>
      </trkpt>
      <trkpt lat="44.33761" lon="1.34534">
        <ele>223</ele>
        <time>2020-09-28T20:35:27Z</time>
      </trkpt>
      <trkpt lat="44.33761" lon="1.34689">
        <ele>223</ele>
        <time>2020-09-28T20:37:55Z</time>
      </trkpt>
      <trkpt lat="44.33982" lon="1.34689">
        <ele>199</ele>
        <time>2020-09-28T20:42:49Z</time>
      </trkpt>
      <trkpt lat="44.34056" lon="1.34586">
        <ele>198</ele>
        <time>2020-09-28T20:45:09Z</time>
      </trkpt>
      <trkpt lat="44.33896" lon="1.34337">
        <ele>197</ele>
        <time>2020-09-28T20:50:28Z</time>
      </trkpt>
      <trkpt lat="44.34031" lon="1.34277">
        <ele>202</ele>
        <time>2020-09-28T20:53:37Z</time>
      </trkpt>
      <trkpt lat="44.34031" lon="1.3426">
        <ele>202</ele>
        <time>2020-09-28T20:53:54Z</time>
      </trkpt>
    </trkseg>
  </trk>
</gpx>